sensor_id;sensor_type;location;lat;lon;timestamp;P1;durP1;ratioP1;P2;durP2;ratioP2
19221;SDS011;9745;50.828;4.378;2022-12-29T00:02:07;2.47;;;1.17;;
19221;SDS011;9745;50.828;4.378;2022-12-29T00:04:33;2.90;;;1.37;;
19221;SDS011;9745;50.828;4.378;2022-12-29T00:06:59;2.83;;;0.93;;
19221;SDS011;9745;50.828;4.378;2022-12-29T00:09:25;2.17;;;1.00;;
19221;SDS011;9745;50.828;4.378;2022-12-29T00:11:52;3.77;;;1.00;;
19221;SDS011;9745;50.828;4.378;2022-12-29T00:14:18;1.87;;;1.13;;
19221;SDS011;9745;50.828;4.378;2022-12-29T00:17:02;3.90;;;1.03;;
19221;SDS011;9745;50.828;4.378;2022-12-29T00:19:28;3.73;;;1.20;;
19221;SDS011;9745;50.828;4.378;2022-12-29T00:22:13;4.37;;;0.80;;
19221;SDS011;9745;50.828;4.378;2022-12-29T00:24:59;3.53;;;0.70;;
19221;SDS011;9745;50.828;4.378;2022-12-29T00:27:25;3.50;;;0.93;;
19221;SDS011;9745;50.828;4.378;2022-12-29T00:30:11;1.70;;;0.70;;
19221;SDS011;9745;50.828;4.378;2022-12-29T00:32:56;1.97;;;0.90;;
19221;SDS011;9745;50.828;4.378;2022-12-29T00:35:45;1.93;;;0.60;;
19221;SDS011;9745;50.828;4.378;2022-12-29T00:38:11;3.33;;;1.23;;
19221;SDS011;9745;50.828;4.378;2022-12-29T00:40:56;3.83;;;1.07;;
19221;SDS011;9745;50.828;4.378;2022-12-29T00:43:41;2.73;;;0.83;;
19221;SDS011;9745;50.828;4.378;2022-12-29T00:46:25;3.97;;;1.40;;
19221;SDS011;9745;50.828;4.378;2022-12-29T00:48:51;6.80;;;1.33;;
19221;SDS011;9745;50.828;4.378;2022-12-29T00:51:36;2.83;;;0.80;;
19221;SDS011;9745;50.828;4.378;2022-12-29T00:54:02;3.33;;;0.90;;
19221;SDS011;9745;50.828;4.378;2022-12-29T00:56:28;1.23;;;0.67;;
19221;SDS011;9745;50.828;4.378;2022-12-29T00:58:54;2.23;;;0.90;;
19221;SDS011;9745;50.828;4.378;2022-12-29T01:01:20;4.50;;;1.17;;
19221;SDS011;9745;50.828;4.378;2022-12-29T01:03:46;3.60;;;0.70;;
19221;SDS011;9745;50.828;4.378;2022-12-29T01:06:12;2.50;;;0.87;;
19221;SDS011;9745;50.828;4.378;2022-12-29T01:08:38;1.13;;;0.73;;
19221;SDS011;9745;50.828;4.378;2022-12-29T01:11:05;2.80;;;1.00;;
19221;SDS011;9745;50.828;4.378;2022-12-29T01:13:32;8.30;;;1.30;;
19221;SDS011;9745;50.828;4.378;2022-12-29T01:15:58;2.00;;;0.83;;
19221;SDS011;9745;50.828;4.378;2022-12-29T01:18:24;4.13;;;1.07;;
19221;SDS011;9745;50.828;4.378;2022-12-29T01:20:50;1.70;;;0.60;;
19221;SDS011;9745;50.828;4.378;2022-12-29T01:23:16;1.13;;;0.60;;
19221;SDS011;9745;50.828;4.378;2022-12-29T01:25:42;4.20;;;1.20;;
19221;SDS011;9745;50.828;4.378;2022-12-29T01:28:08;4.27;;;0.90;;
19221;SDS011;9745;50.828;4.378;2022-12-29T01:30:35;1.53;;;0.83;;
19221;SDS011;9745;50.828;4.378;2022-12-29T01:33:01;2.43;;;0.90;;
19221;SDS011;9745;50.828;4.378;2022-12-29T01:35:27;4.60;;;1.60;;
19221;SDS011;9745;50.828;4.378;2022-12-29T01:37:53;2.50;;;0.93;;
19221;SDS011;9745;50.828;4.378;2022-12-29T01:40:19;3.30;;;1.13;;
19221;SDS011;9745;50.828;4.378;2022-12-29T01:42:45;2.23;;;0.97;;
19221;SDS011;9745;50.828;4.378;2022-12-29T01:45:12;4.77;;;1.07;;
19221;SDS011;9745;50.828;4.378;2022-12-29T01:47:39;3.43;;;1.20;;
19221;SDS011;9745;50.828;4.378;2022-12-29T01:50:12;4.17;;;1.10;;
19221;SDS011;9745;50.828;4.378;2022-12-29T01:52:42;4.10;;;1.10;;
19221;SDS011;9745;50.828;4.378;2022-12-29T01:55:08;1.90;;;1.03;;
19221;SDS011;9745;50.828;4.378;2022-12-29T01:57:37;1.30;;;0.83;;
19221;SDS011;9745;50.828;4.378;2022-12-29T02:00:10;2.10;;;0.90;;
19221;SDS011;9745;50.828;4.378;2022-12-29T02:02:37;2.03;;;0.73;;
19221;SDS011;9745;50.828;4.378;2022-12-29T02:05:05;1.23;;;0.63;;
19221;SDS011;9745;50.828;4.378;2022-12-29T02:07:33;3.77;;;0.70;;
19221;SDS011;9745;50.828;4.378;2022-12-29T02:09:59;2.53;;;1.43;;
19221;SDS011;9745;50.828;4.378;2022-12-29T02:12:26;2.30;;;0.70;;
19221;SDS011;9745;50.828;4.378;2022-12-29T02:14:53;3.13;;;0.60;;
19221;SDS011;9745;50.828;4.378;2022-12-29T02:17:58;3.03;;;0.67;;
19221;SDS011;9745;50.828;4.378;2022-12-29T02:30:42;2.17;;;0.40;;
19221;SDS011;9745;50.828;4.378;2022-12-29T02:33:21;2.70;;;0.50;;
19221;SDS011;9745;50.828;4.378;2022-12-29T02:38:43;4.60;;;0.43;;
19221;SDS011;9745;50.828;4.378;2022-12-29T02:41:21;3.43;;;0.70;;
19221;SDS011;9745;50.828;4.378;2022-12-29T02:49:06;0.43;;;0.40;;
19221;SDS011;9745;50.828;4.378;2022-12-29T02:51:37;1.13;;;0.40;;
19221;SDS011;9745;50.828;4.378;2022-12-29T02:54:04;2.30;;;0.40;;
19221;SDS011;9745;50.828;4.378;2022-12-29T02:56:49;0.83;;;0.33;;
19221;SDS011;9745;50.828;4.378;2022-12-29T02:59:15;1.80;;;0.50;;
19221;SDS011;9745;50.828;4.378;2022-12-29T03:10:01;2.17;;;0.60;;
19221;SDS011;9745;50.828;4.378;2022-12-29T03:15:18;2.57;;;0.60;;
19221;SDS011;9745;50.828;4.378;2022-12-29T03:18:10;6.60;;;0.60;;
19221;SDS011;9745;50.828;4.378;2022-12-29T03:20:41;6.97;;;0.93;;
19221;SDS011;9745;50.828;4.378;2022-12-29T03:23:11;4.67;;;0.57;;
19221;SDS011;9745;50.828;4.378;2022-12-29T03:25:39;4.17;;;0.73;;
19221;SDS011;9745;50.828;4.378;2022-12-29T03:28:07;6.00;;;0.70;;
19221;SDS011;9745;50.828;4.378;2022-12-29T03:30:34;2.87;;;0.60;;
19221;SDS011;9745;50.828;4.378;2022-12-29T03:33:02;4.90;;;0.77;;
19221;SDS011;9745;50.828;4.378;2022-12-29T03:35:30;0.70;;;0.50;;
19221;SDS011;9745;50.828;4.378;2022-12-29T03:38:12;2.50;;;0.70;;
19221;SDS011;9745;50.828;4.378;2022-12-29T03:40:40;1.30;;;0.40;;
19221;SDS011;9745;50.828;4.378;2022-12-29T03:43:07;1.73;;;0.87;;
19221;SDS011;9745;50.828;4.378;2022-12-29T03:45:33;6.07;;;0.73;;
19221;SDS011;9745;50.828;4.378;2022-12-29T03:47:59;8.73;;;2.23;;
19221;SDS011;9745;50.828;4.378;2022-12-29T03:50:25;5.77;;;0.70;;
19221;SDS011;9745;50.828;4.378;2022-12-29T03:52:51;7.40;;;0.83;;
19221;SDS011;9745;50.828;4.378;2022-12-29T03:55:17;5.60;;;1.20;;
19221;SDS011;9745;50.828;4.378;2022-12-29T03:57:43;4.13;;;0.83;;
19221;SDS011;9745;50.828;4.378;2022-12-29T04:00:09;4.43;;;1.73;;
19221;SDS011;9745;50.828;4.378;2022-12-29T04:02:36;3.10;;;0.93;;
19221;SDS011;9745;50.828;4.378;2022-12-29T04:05:02;6.93;;;1.17;;
19221;SDS011;9745;50.828;4.378;2022-12-29T04:07:28;6.13;;;1.30;;
19221;SDS011;9745;50.828;4.378;2022-12-29T04:09:54;5.30;;;1.10;;
19221;SDS011;9745;50.828;4.378;2022-12-29T04:12:20;4.83;;;1.20;;
19221;SDS011;9745;50.828;4.378;2022-12-29T04:14:46;6.43;;;0.93;;
19221;SDS011;9745;50.828;4.378;2022-12-29T04:17:12;4.53;;;0.90;;
19221;SDS011;9745;50.828;4.378;2022-12-29T04:19:38;2.20;;;0.83;;
19221;SDS011;9745;50.828;4.378;2022-12-29T04:22:04;2.93;;;0.83;;
19221;SDS011;9745;50.828;4.378;2022-12-29T04:24:30;2.53;;;0.70;;
19221;SDS011;9745;50.828;4.378;2022-12-29T04:26:56;3.87;;;1.10;;
19221;SDS011;9745;50.828;4.378;2022-12-29T04:29:22;5.13;;;0.80;;
19221;SDS011;9745;50.828;4.378;2022-12-29T04:31:48;5.87;;;1.20;;
19221;SDS011;9745;50.828;4.378;2022-12-29T04:34:14;4.80;;;1.10;;
19221;SDS011;9745;50.828;4.378;2022-12-29T04:36:40;6.87;;;0.93;;
19221;SDS011;9745;50.828;4.378;2022-12-29T04:39:06;5.73;;;1.50;;
19221;SDS011;9745;50.828;4.378;2022-12-29T04:41:32;6.00;;;0.93;;
19221;SDS011;9745;50.828;4.378;2022-12-29T04:43:58;4.90;;;1.00;;
19221;SDS011;9745;50.828;4.378;2022-12-29T04:46:24;6.80;;;1.23;;
19221;SDS011;9745;50.828;4.378;2022-12-29T04:48:50;1.93;;;1.00;;
19221;SDS011;9745;50.828;4.378;2022-12-29T04:51:16;5.73;;;1.13;;
19221;SDS011;9745;50.828;4.378;2022-12-29T04:53:42;3.87;;;1.00;;
19221;SDS011;9745;50.828;4.378;2022-12-29T04:56:08;5.50;;;1.17;;
19221;SDS011;9745;50.828;4.378;2022-12-29T04:58:35;8.10;;;0.97;;
19221;SDS011;9745;50.828;4.378;2022-12-29T05:01:01;10.57;;;3.10;;
19221;SDS011;9745;50.828;4.378;2022-12-29T05:03:27;5.07;;;1.30;;
19221;SDS011;9745;50.828;4.378;2022-12-29T05:05:53;6.87;;;1.00;;
19221;SDS011;9745;50.828;4.378;2022-12-29T05:08:20;4.87;;;1.10;;
19221;SDS011;9745;50.828;4.378;2022-12-29T05:10:46;7.77;;;1.20;;
19221;SDS011;9745;50.828;4.378;2022-12-29T05:13:12;5.03;;;0.90;;
19221;SDS011;9745;50.828;4.378;2022-12-29T05:15:38;6.33;;;1.10;;
19221;SDS011;9745;50.828;4.378;2022-12-29T05:18:04;5.17;;;1.13;;
19221;SDS011;9745;50.828;4.378;2022-12-29T05:20:30;3.77;;;1.13;;
19221;SDS011;9745;50.828;4.378;2022-12-29T05:22:56;8.23;;;0.97;;
19221;SDS011;9745;50.828;4.378;2022-12-29T05:25:22;9.13;;;1.07;;
19221;SDS011;9745;50.828;4.378;2022-12-29T05:27:48;7.03;;;1.20;;
19221;SDS011;9745;50.828;4.378;2022-12-29T05:30:14;7.47;;;1.30;;
19221;SDS011;9745;50.828;4.378;2022-12-29T05:32:40;3.73;;;1.50;;
19221;SDS011;9745;50.828;4.378;2022-12-29T05:35:06;9.33;;;1.30;;
19221;SDS011;9745;50.828;4.378;2022-12-29T05:37:32;7.53;;;0.87;;
19221;SDS011;9745;50.828;4.378;2022-12-29T05:39:58;7.60;;;2.23;;
19221;SDS011;9745;50.828;4.378;2022-12-29T05:42:24;5.13;;;1.17;;
19221;SDS011;9745;50.828;4.378;2022-12-29T05:44:50;6.37;;;1.43;;
19221;SDS011;9745;50.828;4.378;2022-12-29T05:47:18;6.30;;;1.40;;
19221;SDS011;9745;50.828;4.378;2022-12-29T05:49:44;6.53;;;1.47;;
19221;SDS011;9745;50.828;4.378;2022-12-29T05:52:10;9.03;;;1.47;;
19221;SDS011;9745;50.828;4.378;2022-12-29T05:54:37;9.70;;;1.37;;
19221;SDS011;9745;50.828;4.378;2022-12-29T05:57:03;7.73;;;2.20;;
19221;SDS011;9745;50.828;4.378;2022-12-29T05:59:29;8.67;;;1.17;;
19221;SDS011;9745;50.828;4.378;2022-12-29T06:01:55;7.73;;;1.20;;
19221;SDS011;9745;50.828;4.378;2022-12-29T06:04:21;9.33;;;1.80;;
19221;SDS011;9745;50.828;4.378;2022-12-29T06:06:46;6.93;;;1.10;;
19221;SDS011;9745;50.828;4.378;2022-12-29T06:09:13;8.60;;;1.20;;
19221;SDS011;9745;50.828;4.378;2022-12-29T06:11:39;9.37;;;1.47;;
19221;SDS011;9745;50.828;4.378;2022-12-29T06:14:05;10.17;;;1.67;;
19221;SDS011;9745;50.828;4.378;2022-12-29T06:16:31;7.30;;;1.30;;
19221;SDS011;9745;50.828;4.378;2022-12-29T06:18:57;7.63;;;2.00;;
19221;SDS011;9745;50.828;4.378;2022-12-29T06:21:23;5.00;;;1.00;;
19221;SDS011;9745;50.828;4.378;2022-12-29T06:23:49;8.20;;;1.63;;
19221;SDS011;9745;50.828;4.378;2022-12-29T06:26:15;4.47;;;1.17;;
19221;SDS011;9745;50.828;4.378;2022-12-29T06:28:41;7.53;;;1.50;;
19221;SDS011;9745;50.828;4.378;2022-12-29T06:31:10;11.00;;;2.43;;
19221;SDS011;9745;50.828;4.378;2022-12-29T06:33:37;6.50;;;1.23;;
19221;SDS011;9745;50.828;4.378;2022-12-29T06:36:03;6.23;;;1.67;;
19221;SDS011;9745;50.828;4.378;2022-12-29T06:38:29;8.73;;;1.97;;
19221;SDS011;9745;50.828;4.378;2022-12-29T06:40:55;5.87;;;1.17;;
19221;SDS011;9745;50.828;4.378;2022-12-29T06:43:21;7.73;;;1.33;;
19221;SDS011;9745;50.828;4.378;2022-12-29T06:45:47;8.50;;;1.90;;
19221;SDS011;9745;50.828;4.378;2022-12-29T06:48:13;9.23;;;2.30;;
19221;SDS011;9745;50.828;4.378;2022-12-29T06:50:39;5.17;;;1.53;;
19221;SDS011;9745;50.828;4.378;2022-12-29T06:53:05;10.70;;;1.70;;
19221;SDS011;9745;50.828;4.378;2022-12-29T06:55:31;6.93;;;1.83;;
19221;SDS011;9745;50.828;4.378;2022-12-29T06:57:57;12.60;;;1.67;;
19221;SDS011;9745;50.828;4.378;2022-12-29T07:00:24;7.53;;;1.40;;
19221;SDS011;9745;50.828;4.378;2022-12-29T07:02:50;11.07;;;1.43;;
19221;SDS011;9745;50.828;4.378;2022-12-29T07:05:17;7.00;;;1.53;;
19221;SDS011;9745;50.828;4.378;2022-12-29T07:07:43;11.00;;;1.50;;
19221;SDS011;9745;50.828;4.378;2022-12-29T07:10:09;13.30;;;2.00;;
19221;SDS011;9745;50.828;4.378;2022-12-29T07:12:35;12.10;;;2.47;;
19221;SDS011;9745;50.828;4.378;2022-12-29T07:15:01;11.23;;;1.30;;
19221;SDS011;9745;50.828;4.378;2022-12-29T07:17:27;5.37;;;1.27;;
19221;SDS011;9745;50.828;4.378;2022-12-29T07:19:53;8.10;;;2.00;;
19221;SDS011;9745;50.828;4.378;2022-12-29T07:22:19;6.87;;;1.47;;
19221;SDS011;9745;50.828;4.378;2022-12-29T07:24:45;12.33;;;1.73;;
19221;SDS011;9745;50.828;4.378;2022-12-29T07:27:11;11.60;;;1.97;;
19221;SDS011;9745;50.828;4.378;2022-12-29T07:29:37;4.37;;;1.37;;
19221;SDS011;9745;50.828;4.378;2022-12-29T07:32:03;6.67;;;1.20;;
19221;SDS011;9745;50.828;4.378;2022-12-29T07:34:29;8.37;;;1.60;;
19221;SDS011;9745;50.828;4.378;2022-12-29T07:36:55;6.80;;;1.53;;
19221;SDS011;9745;50.828;4.378;2022-12-29T07:39:21;6.87;;;1.47;;
19221;SDS011;9745;50.828;4.378;2022-12-29T07:41:47;11.63;;;2.53;;
19221;SDS011;9745;50.828;4.378;2022-12-29T07:44:13;8.20;;;1.50;;
19221;SDS011;9745;50.828;4.378;2022-12-29T07:46:39;10.13;;;1.60;;
19221;SDS011;9745;50.828;4.378;2022-12-29T07:49:05;11.90;;;2.80;;
19221;SDS011;9745;50.828;4.378;2022-12-29T07:51:31;8.73;;;1.67;;
19221;SDS011;9745;50.828;4.378;2022-12-29T07:53:57;9.60;;;1.33;;
19221;SDS011;9745;50.828;4.378;2022-12-29T07:56:25;11.73;;;2.23;;
19221;SDS011;9745;50.828;4.378;2022-12-29T07:58:51;9.73;;;1.83;;
19221;SDS011;9745;50.828;4.378;2022-12-29T08:01:17;7.70;;;1.60;;
19221;SDS011;9745;50.828;4.378;2022-12-29T08:03:43;8.33;;;1.90;;
19221;SDS011;9745;50.828;4.378;2022-12-29T08:06:10;11.17;;;2.10;;
19221;SDS011;9745;50.828;4.378;2022-12-29T08:08:36;10.60;;;1.77;;
19221;SDS011;9745;50.828;4.378;2022-12-29T08:11:02;9.17;;;1.70;;
19221;SDS011;9745;50.828;4.378;2022-12-29T08:13:28;9.30;;;1.53;;
19221;SDS011;9745;50.828;4.378;2022-12-29T08:15:54;12.27;;;1.90;;
19221;SDS011;9745;50.828;4.378;2022-12-29T08:18:21;11.67;;;2.00;;
19221;SDS011;9745;50.828;4.378;2022-12-29T08:20:47;6.73;;;1.70;;
19221;SDS011;9745;50.828;4.378;2022-12-29T08:23:13;6.67;;;1.43;;
19221;SDS011;9745;50.828;4.378;2022-12-29T08:25:39;8.63;;;1.47;;
19221;SDS011;9745;50.828;4.378;2022-12-29T08:28:05;9.40;;;2.03;;
19221;SDS011;9745;50.828;4.378;2022-12-29T08:30:31;6.83;;;1.83;;
19221;SDS011;9745;50.828;4.378;2022-12-29T08:32:57;10.17;;;2.87;;
19221;SDS011;9745;50.828;4.378;2022-12-29T08:35:23;5.77;;;1.83;;
19221;SDS011;9745;50.828;4.378;2022-12-29T08:37:49;8.10;;;1.63;;
19221;SDS011;9745;50.828;4.378;2022-12-29T08:40:16;14.07;;;2.17;;
19221;SDS011;9745;50.828;4.378;2022-12-29T08:42:41;12.03;;;1.80;;
19221;SDS011;9745;50.828;4.378;2022-12-29T08:45:08;7.50;;;1.50;;
19221;SDS011;9745;50.828;4.378;2022-12-29T08:47:34;8.43;;;2.20;;
19221;SDS011;9745;50.828;4.378;2022-12-29T08:50:00;10.20;;;2.33;;
19221;SDS011;9745;50.828;4.378;2022-12-29T08:52:26;11.30;;;2.13;;
19221;SDS011;9745;50.828;4.378;2022-12-29T08:54:52;8.83;;;1.27;;
19221;SDS011;9745;50.828;4.378;2022-12-29T08:57:18;10.27;;;1.90;;
19221;SDS011;9745;50.828;4.378;2022-12-29T08:59:44;11.27;;;1.90;;
19221;SDS011;9745;50.828;4.378;2022-12-29T09:02:10;8.47;;;1.80;;
19221;SDS011;9745;50.828;4.378;2022-12-29T09:04:37;11.70;;;1.87;;
19221;SDS011;9745;50.828;4.378;2022-12-29T09:07:03;12.40;;;2.20;;
19221;SDS011;9745;50.828;4.378;2022-12-29T09:09:30;8.90;;;2.73;;
19221;SDS011;9745;50.828;4.378;2022-12-29T09:11:56;6.60;;;1.27;;
19221;SDS011;9745;50.828;4.378;2022-12-29T09:14:22;12.13;;;1.63;;
19221;SDS011;9745;50.828;4.378;2022-12-29T09:16:50;6.07;;;1.70;;
19221;SDS011;9745;50.828;4.378;2022-12-29T09:19:35;11.43;;;2.07;;
19221;SDS011;9745;50.828;4.378;2022-12-29T09:22:01;13.23;;;2.20;;
19221;SDS011;9745;50.828;4.378;2022-12-29T09:24:28;10.17;;;2.33;;
19221;SDS011;9745;50.828;4.378;2022-12-29T09:26:54;7.97;;;1.87;;
19221;SDS011;9745;50.828;4.378;2022-12-29T09:29:19;7.67;;;1.93;;
19221;SDS011;9745;50.828;4.378;2022-12-29T09:31:45;9.57;;;1.97;;
19221;SDS011;9745;50.828;4.378;2022-12-29T09:34:11;9.43;;;1.90;;
19221;SDS011;9745;50.828;4.378;2022-12-29T09:36:37;11.47;;;1.73;;
19221;SDS011;9745;50.828;4.378;2022-12-29T09:39:03;12.63;;;1.87;;
19221;SDS011;9745;50.828;4.378;2022-12-29T09:41:32;8.13;;;1.80;;
19221;SDS011;9745;50.828;4.378;2022-12-29T09:44:06;16.37;;;1.90;;
19221;SDS011;9745;50.828;4.378;2022-12-29T09:46:35;10.93;;;2.33;;
19221;SDS011;9745;50.828;4.378;2022-12-29T09:49:08;12.83;;;2.40;;
19221;SDS011;9745;50.828;4.378;2022-12-29T09:51:38;7.47;;;2.00;;
19221;SDS011;9745;50.828;4.378;2022-12-29T09:56:40;11.53;;;2.53;;
19221;SDS011;9745;50.828;4.378;2022-12-29T09:59:14;10.57;;;1.87;;
19221;SDS011;9745;50.828;4.378;2022-12-29T10:01:44;12.17;;;1.77;;
19221;SDS011;9745;50.828;4.378;2022-12-29T10:04:12;11.73;;;1.63;;
19221;SDS011;9745;50.828;4.378;2022-12-29T10:06:45;15.10;;;2.10;;
19221;SDS011;9745;50.828;4.378;2022-12-29T10:11:48;13.07;;;3.40;;
19221;SDS011;9745;50.828;4.378;2022-12-29T10:20:07;13.17;;;1.50;;
19221;SDS011;9745;50.828;4.378;2022-12-29T10:22:41;7.10;;;1.70;;
19221;SDS011;9745;50.828;4.378;2022-12-29T10:25:31;9.17;;;1.97;;
19221;SDS011;9745;50.828;4.378;2022-12-29T10:27:59;11.80;;;2.77;;
19221;SDS011;9745;50.828;4.378;2022-12-29T10:30:26;10.07;;;1.80;;
19221;SDS011;9745;50.828;4.378;2022-12-29T10:32:54;9.30;;;1.67;;
19221;SDS011;9745;50.828;4.378;2022-12-29T10:35:22;11.37;;;1.87;;
19221;SDS011;9745;50.828;4.378;2022-12-29T10:38:12;12.03;;;1.53;;
19221;SDS011;9745;50.828;4.378;2022-12-29T10:43:27;12.27;;;2.87;;
19221;SDS011;9745;50.828;4.378;2022-12-29T10:45:54;11.90;;;1.83;;
19221;SDS011;9745;50.828;4.378;2022-12-29T10:48:25;13.20;;;1.93;;
19221;SDS011;9745;50.828;4.378;2022-12-29T10:50:53;11.43;;;2.23;;
19221;SDS011;9745;50.828;4.378;2022-12-29T10:53:23;9.07;;;1.80;;
19221;SDS011;9745;50.828;4.378;2022-12-29T10:55:50;10.57;;;1.80;;
19221;SDS011;9745;50.828;4.378;2022-12-29T10:58:17;8.33;;;2.00;;
19221;SDS011;9745;50.828;4.378;2022-12-29T11:00:43;12.57;;;1.70;;
19221;SDS011;9745;50.828;4.378;2022-12-29T11:03:22;9.53;;;2.07;;
19221;SDS011;9745;50.828;4.378;2022-12-29T11:05:55;11.17;;;1.80;;
19221;SDS011;9745;50.828;4.378;2022-12-29T11:08:24;10.83;;;2.07;;
19221;SDS011;9745;50.828;4.378;2022-12-29T11:10:58;13.33;;;2.40;;
19221;SDS011;9745;50.828;4.378;2022-12-29T11:13:26;9.83;;;2.60;;
19221;SDS011;9745;50.828;4.378;2022-12-29T11:15:53;10.80;;;2.30;;
19221;SDS011;9745;50.828;4.378;2022-12-29T11:18:20;10.77;;;1.90;;
19221;SDS011;9745;50.828;4.378;2022-12-29T11:20:47;14.30;;;2.40;;
19221;SDS011;9745;50.828;4.378;2022-12-29T11:26:05;12.23;;;1.67;;
19221;SDS011;9745;50.828;4.378;2022-12-29T11:28:31;12.40;;;2.00;;
19221;SDS011;9745;50.828;4.378;2022-12-29T11:31:01;11.40;;;1.70;;
19221;SDS011;9745;50.828;4.378;2022-12-29T11:33:29;13.30;;;2.07;;
19221;SDS011;9745;50.828;4.378;2022-12-29T11:36:02;10.00;;;1.97;;
19221;SDS011;9745;50.828;4.378;2022-12-29T11:38:33;10.50;;;1.97;;
19221;SDS011;9745;50.828;4.378;2022-12-29T11:40:59;10.33;;;2.23;;
19221;SDS011;9745;50.828;4.378;2022-12-29T11:45:51;13.77;;;2.47;;
19221;SDS011;9745;50.828;4.378;2022-12-29T11:48:19;13.53;;;2.07;;
19221;SDS011;9745;50.828;4.378;2022-12-29T11:50:53;9.37;;;2.00;;
19221;SDS011;9745;50.828;4.378;2022-12-29T11:55:52;12.00;;;2.67;;
19221;SDS011;9745;50.828;4.378;2022-12-29T11:58:18;13.20;;;1.90;;
19221;SDS011;9745;50.828;4.378;2022-12-29T12:00:44;14.03;;;2.90;;
19221;SDS011;9745;50.828;4.378;2022-12-29T12:03:13;9.47;;;2.03;;
19221;SDS011;9745;50.828;4.378;2022-12-29T12:05:44;12.03;;;2.40;;
19221;SDS011;9745;50.828;4.378;2022-12-29T12:11:04;12.37;;;2.63;;
19221;SDS011;9745;50.828;4.378;2022-12-29T12:13:38;11.30;;;2.10;;
19221;SDS011;9745;50.828;4.378;2022-12-29T12:18:34;14.53;;;3.57;;
19221;SDS011;9745;50.828;4.378;2022-12-29T12:23:40;11.80;;;1.73;;
19221;SDS011;9745;50.828;4.378;2022-12-29T12:33:46;18.20;;;3.20;;
19221;SDS011;9745;50.828;4.378;2022-12-29T12:41:38;14.40;;;3.00;;
19221;SDS011;9745;50.828;4.378;2022-12-29T12:44:18;15.33;;;1.77;;
19221;SDS011;9745;50.828;4.378;2022-12-29T12:57:17;8.00;;;1.80;;
19221;SDS011;9745;50.828;4.378;2022-12-29T12:59:59;14.60;;;2.50;;
19221;SDS011;9745;50.828;4.378;2022-12-29T13:02:29;12.57;;;2.27;;
19221;SDS011;9745;50.828;4.378;2022-12-29T13:07:40;5.73;;;1.97;;
19221;SDS011;9745;50.828;4.378;2022-12-29T13:10:26;8.63;;;1.93;;
19221;SDS011;9745;50.828;4.378;2022-12-29T13:21:01;13.17;;;1.87;;
19221;SDS011;9745;50.828;4.378;2022-12-29T13:23:34;14.27;;;2.30;;
19221;SDS011;9745;50.828;4.378;2022-12-29T13:26:06;8.90;;;1.80;;
19221;SDS011;9745;50.828;4.378;2022-12-29T13:28:37;10.93;;;1.87;;
19221;SDS011;9745;50.828;4.378;2022-12-29T13:31:15;11.17;;;1.47;;
19221;SDS011;9745;50.828;4.378;2022-12-29T13:36:14;23.93;;;9.37;;
19221;SDS011;9745;50.828;4.378;2022-12-29T13:38:45;19.20;;;6.33;;
19221;SDS011;9745;50.828;4.378;2022-12-29T13:41:34;12.23;;;2.70;;
19221;SDS011;9745;50.828;4.378;2022-12-29T13:43:58;10.37;;;2.63;;
19221;SDS011;9745;50.828;4.378;2022-12-29T13:46:31;10.80;;;1.90;;
19221;SDS011;9745;50.828;4.378;2022-12-29T13:49:04;11.10;;;2.50;;
19221;SDS011;9745;50.828;4.378;2022-12-29T13:51:31;10.60;;;2.73;;
19221;SDS011;9745;50.828;4.378;2022-12-29T13:57:10;9.20;;;2.17;;
19221;SDS011;9745;50.828;4.378;2022-12-29T14:02:08;11.10;;;2.47;;
19221;SDS011;9745;50.828;4.378;2022-12-29T14:04:40;8.83;;;1.80;;
19221;SDS011;9745;50.828;4.378;2022-12-29T14:07:20;14.70;;;2.10;;
19221;SDS011;9745;50.828;4.378;2022-12-29T14:12:31;16.53;;;3.67;;
19221;SDS011;9745;50.828;4.378;2022-12-29T14:17:36;11.40;;;2.23;;
19221;SDS011;9745;50.828;4.378;2022-12-29T14:20:03;11.00;;;2.90;;
19221;SDS011;9745;50.828;4.378;2022-12-29T14:22:29;6.87;;;1.60;;
19221;SDS011;9745;50.828;4.378;2022-12-29T14:24:56;10.20;;;2.67;;
19221;SDS011;9745;50.828;4.378;2022-12-29T14:29:48;9.90;;;2.20;;
19221;SDS011;9745;50.828;4.378;2022-12-29T14:34:56;13.37;;;2.83;;
19221;SDS011;9745;50.828;4.378;2022-12-29T14:37:29;7.93;;;2.13;;
19221;SDS011;9745;50.828;4.378;2022-12-29T14:42:27;8.63;;;2.10;;
19221;SDS011;9745;50.828;4.378;2022-12-29T14:44:58;12.27;;;1.73;;
19221;SDS011;9745;50.828;4.378;2022-12-29T14:47:32;18.57;;;2.10;;
19221;SDS011;9745;50.828;4.378;2022-12-29T14:50:06;16.33;;;2.07;;
19221;SDS011;9745;50.828;4.378;2022-12-29T14:55:44;5.87;;;1.83;;
19221;SDS011;9745;50.828;4.378;2022-12-29T14:58:22;7.47;;;1.80;;
19221;SDS011;9745;50.828;4.378;2022-12-29T15:00:51;6.37;;;1.70;;
19221;SDS011;9745;50.828;4.378;2022-12-29T15:03:20;8.23;;;2.30;;
19221;SDS011;9745;50.828;4.378;2022-12-29T15:05:51;6.10;;;2.10;;
19221;SDS011;9745;50.828;4.378;2022-12-29T15:08:28;8.03;;;1.60;;
19221;SDS011;9745;50.828;4.378;2022-12-29T15:10:56;6.60;;;1.50;;
19221;SDS011;9745;50.828;4.378;2022-12-29T15:13:25;5.50;;;1.60;;
19221;SDS011;9745;50.828;4.378;2022-12-29T15:15:57;4.20;;;1.40;;
19221;SDS011;9745;50.828;4.378;2022-12-29T15:20:59;6.97;;;1.90;;
19221;SDS011;9745;50.828;4.378;2022-12-29T15:23:25;6.37;;;1.20;;
19221;SDS011;9745;50.828;4.378;2022-12-29T15:25:55;6.83;;;1.67;;
19221;SDS011;9745;50.828;4.378;2022-12-29T15:28:22;4.27;;;1.30;;
19221;SDS011;9745;50.828;4.378;2022-12-29T15:30:52;4.23;;;1.20;;
19221;SDS011;9745;50.828;4.378;2022-12-29T15:33:19;6.40;;;1.20;;
19221;SDS011;9745;50.828;4.378;2022-12-29T15:35:49;6.47;;;1.13;;
19221;SDS011;9745;50.828;4.378;2022-12-29T15:38:20;5.90;;;1.47;;
19221;SDS011;9745;50.828;4.378;2022-12-29T15:40:48;3.40;;;1.43;;
19221;SDS011;9745;50.828;4.378;2022-12-29T15:43:32;9.63;;;2.00;;
19221;SDS011;9745;50.828;4.378;2022-12-29T15:46:02;10.00;;;2.13;;
19221;SDS011;9745;50.828;4.378;2022-12-29T15:48:28;12.47;;;1.50;;
19221;SDS011;9745;50.828;4.378;2022-12-29T15:50:56;7.40;;;1.87;;
19221;SDS011;9745;50.828;4.378;2022-12-29T15:53:30;5.67;;;2.10;;
19221;SDS011;9745;50.828;4.378;2022-12-29T15:55:58;13.83;;;3.57;;
19221;SDS011;9745;50.828;4.378;2022-12-29T15:58:26;11.00;;;2.50;;
19221;SDS011;9745;50.828;4.378;2022-12-29T16:00:53;10.67;;;2.33;;
19221;SDS011;9745;50.828;4.378;2022-12-29T16:03:21;7.63;;;2.00;;
19221;SDS011;9745;50.828;4.378;2022-12-29T16:05:53;10.57;;;1.93;;
19221;SDS011;9745;50.828;4.378;2022-12-29T16:10:48;11.57;;;2.13;;
19221;SDS011;9745;50.828;4.378;2022-12-29T16:15:51;12.07;;;2.80;;
19221;SDS011;9745;50.828;4.378;2022-12-29T16:18:24;10.10;;;2.50;;
19221;SDS011;9745;50.828;4.378;2022-12-29T16:20:52;10.67;;;2.67;;
19221;SDS011;9745;50.828;4.378;2022-12-29T16:23:20;18.87;;;2.93;;
19221;SDS011;9745;50.828;4.378;2022-12-29T16:25:47;8.63;;;3.57;;
19221;SDS011;9745;50.828;4.378;2022-12-29T16:28:36;17.33;;;3.07;;
19221;SDS011;9745;50.828;4.378;2022-12-29T16:31:03;16.10;;;3.33;;
19221;SDS011;9745;50.828;4.378;2022-12-29T16:33:46;20.63;;;3.57;;
19221;SDS011;9745;50.828;4.378;2022-12-29T16:36:32;11.83;;;2.97;;
19221;SDS011;9745;50.828;4.378;2022-12-29T16:41:51;19.27;;;3.33;;
19221;SDS011;9745;50.828;4.378;2022-12-29T16:49:22;18.33;;;3.37;;
19221;SDS011;9745;50.828;4.378;2022-12-29T16:51:48;15.23;;;3.17;;
19221;SDS011;9745;50.828;4.378;2022-12-29T16:54:22;18.30;;;3.27;;
19221;SDS011;9745;50.828;4.378;2022-12-29T16:56:49;17.30;;;3.53;;
19221;SDS011;9745;50.828;4.378;2022-12-29T17:01:41;7.77;;;2.13;;
19221;SDS011;9745;50.828;4.378;2022-12-29T17:04:11;12.70;;;2.80;;
19221;SDS011;9745;50.828;4.378;2022-12-29T17:06:37;16.20;;;3.20;;
19221;SDS011;9745;50.828;4.378;2022-12-29T17:09:16;15.53;;;3.53;;
19221;SDS011;9745;50.828;4.378;2022-12-29T17:11:42;19.43;;;3.30;;
19221;SDS011;9745;50.828;4.378;2022-12-29T17:14:34;15.80;;;3.20;;
19221;SDS011;9745;50.828;4.378;2022-12-29T17:17:02;19.67;;;3.50;;
19221;SDS011;9745;50.828;4.378;2022-12-29T17:19:35;14.50;;;2.67;;
19221;SDS011;9745;50.828;4.378;2022-12-29T17:22:02;20.63;;;3.47;;